createdAt,value
2023-04-16T00:02:29.349Z,100061.16
2023-04-16T00:05:32.284Z,100051.41
2023-04-16T00:08:35.931Z,100052.31
2023-04-16T00:11:38.753Z,100057.63
2023-04-16T00:14:42.670Z,100062.09
2023-04-16T00:17:45.613Z,100064.81
2023-04-16T00:20:48.613Z,100068.38
2023-04-16T00:23:51.605Z,100078.16
2023-04-16T00:26:54.208Z,100067.47
2023-04-16T00:29:57.052Z,100076.34
2023-04-16T00:33:00.011Z,100071.94
2023-04-16T00:36:03.049Z,100069.28
2023-04-16T00:39:05.592Z,100072.81
2023-04-16T00:42:08.336Z,100069.25
2023-04-16T00:45:11.545Z,100075.47
2023-04-16T00:48:14.397Z,100073.63
2023-04-16T00:51:18.391Z,100073.56
2023-04-16T00:54:21.663Z,100081.47
2023-04-16T00:57:25.408Z,100077.87
2023-04-16T01:00:28.170Z,100082.31
2023-04-16T01:03:43.246Z,100077.75
2023-04-16T01:06:46.183Z,100078.63
2023-04-16T01:09:49.867Z,100079.50
2023-04-16T01:12:52.686Z,100094.53
2023-04-16T01:15:55.234Z,100095.41
2023-04-16T01:18:58.237Z,100093.56
2023-04-16T01:22:00.979Z,100094.41
2023-04-16T01:25:04.082Z,100092.53
2023-04-16T01:28:07.363Z,100096.91
2023-04-16T01:31:10.285Z,100095.97
2023-04-16T01:34:13.444Z,100100.41
2023-04-16T01:37:16.551Z,100093.25
2023-04-16T01:40:19.402Z,100096.62
2023-04-16T01:43:22.347Z,100101.09
2023-04-16T01:46:28.414Z,100096.69
2023-04-16T01:49:31.480Z,100107.31
2023-04-16T01:52:34.531Z,100107.25
2023-04-16T01:55:37.331Z,100101.97
2023-04-16T01:58:42.777Z,100110.81
2023-04-16T02:01:46.251Z,100103.62
2023-04-16T02:04:49.074Z,100108.91
2023-04-16T02:07:51.585Z,100112.44
2023-04-16T02:10:56.592Z,100114.22
2023-04-16T02:13:59.576Z,100113.28
2023-04-16T02:17:02.477Z,100107.06
2023-04-16T02:20:08.283Z,100108.06
2023-04-16T02:23:12.188Z,100106.34
2023-04-16T02:26:14.796Z,100099.22
2023-04-16T02:29:19.501Z,100100.16
2023-04-16T02:32:22.888Z,100102.78
2023-04-16T02:35:26.011Z,100099.22
2023-04-16T02:38:28.539Z,100107.38
2023-04-16T02:41:31.813Z,100101.22
2023-04-16T02:44:34.480Z,100101.22
2023-04-16T02:47:37.333Z,100106.53
2023-04-16T02:50:39.954Z,100111.91
2023-04-16T02:53:46.160Z,100109.31
2023-04-16T02:56:48.941Z,100118.16
2023-04-16T02:59:51.890Z,100102.19
2023-04-16T03:02:54.546Z,100109.31
2023-04-16T03:05:57.514Z,100112.91
2023-04-16T03:08:59.998Z,100115.59
2023-04-16T03:12:03.354Z,100125.44
2023-04-16T03:15:06.277Z,100132.59
2023-04-16T03:18:09.080Z,100134.38
2023-04-16T03:21:12.006Z,100127.28
2023-04-16T03:24:14.800Z,100132.63
2023-04-16T03:27:17.374Z,100142.41
2023-04-16T03:30:20.369Z,100135.31
2023-04-16T03:33:23.126Z,100137.06
2023-04-16T03:36:29.881Z,100151.28
2023-04-16T03:39:34.599Z,100153.03
2023-04-16T03:42:37.766Z,100158.34
2023-04-16T03:45:45.329Z,100168.94
2023-04-16T03:48:48.889Z,100168.00
2023-04-16T03:51:51.737Z,100174.19
2023-04-16T03:54:54.482Z,100182.25
2023-04-16T03:57:57.477Z,100183.22
2023-04-16T04:01:00.559Z,100183.22
2023-04-16T04:04:03.957Z,100185.94
2023-04-16T04:07:06.688Z,100192.19
2023-04-16T04:10:10.159Z,100185.03
2023-04-16T04:13:14.223Z,100189.44
2023-04-16T04:16:17.889Z,100193.81
2023-04-16T04:19:20.440Z,100196.47
2023-04-16T04:22:23.923Z,100194.66
2023-04-16T04:25:27.987Z,100199.97
2023-04-16T04:28:31.806Z,100204.41
2023-04-16T04:31:34.491Z,100207.97
2023-04-16T04:34:37.575Z,100209.72
2023-04-16T04:37:41.619Z,100214.25
2023-04-16T04:40:49.017Z,100218.75
2023-04-16T04:43:51.923Z,100212.63
2023-04-16T04:46:54.716Z,100215.34
2023-04-16T04:49:57.203Z,100218.97
2023-04-16T04:53:00.605Z,100219.94
2023-04-16T04:56:12.137Z,100223.53
2023-04-16T04:59:15.976Z,100217.41
2023-04-16T05:02:18.652Z,100212.22
2023-04-16T05:05:21.557Z,100221.19
2023-04-16T05:08:24.077Z,100222.19
2023-04-16T05:11:27.108Z,100226.72
2023-04-16T05:14:29.654Z,100224.13
2023-04-16T05:17:32.373Z,100228.66
2023-04-16T05:20:34.936Z,100228.75
2023-04-16T05:23:37.799Z,100235.06
2023-04-16T05:26:40.338Z,100243.16
2023-04-16T05:29:43.210Z,100251.25
2023-04-16T05:32:46.066Z,100253.09
2023-04-16T05:35:48.962Z,100251.38
2023-04-16T05:38:51.862Z,100258.53
2023-04-16T05:41:54.663Z,100256.81
2023-04-16T05:44:57.239Z,100265.75
2023-04-16T05:48:00.030Z,100271.16
2023-04-16T05:51:02.824Z,100260.50
2023-04-16T05:54:05.872Z,100265.03
2023-04-16T05:57:08.404Z,100259.69
2023-04-16T06:00:11.455Z,100270.47
2023-04-16T06:03:14.672Z,100269.62
2023-04-16T06:06:17.682Z,100283.06
2023-04-16T06:09:20.294Z,100287.53
2023-04-16T06:12:23.135Z,100283.09
2023-04-16T06:15:25.602Z,100292.03
2023-04-16T06:18:28.419Z,100291.16
2023-04-16T06:21:31.767Z,100296.53
2023-04-16T06:24:34.632Z,100282.25
2023-04-16T06:27:37.287Z,100291.16
2023-04-16T06:30:40.092Z,100294.72
2023-04-16T06:33:42.631Z,100297.41
2023-04-16T06:36:45.734Z,100301.87
2023-04-16T06:39:48.410Z,100297.41
2023-04-16T06:42:51.244Z,100299.19
2023-04-16T06:45:53.930Z,100297.41
2023-04-16T06:48:57.141Z,100298.31
2023-04-16T06:51:59.648Z,100292.91
2023-04-16T06:55:02.662Z,100283.06
2023-04-16T06:58:05.206Z,100295.56
2023-04-16T07:01:08.112Z,100291.97
2023-04-16T07:04:12.066Z,100301.78
2023-04-16T07:07:14.874Z,100307.97
2023-04-16T07:10:17.376Z,100307.91
2023-04-16T07:13:20.858Z,100308.75
2023-04-16T07:16:23.957Z,100306.00
2023-04-16T07:19:30.594Z,100312.22
2023-04-16T07:22:33.716Z,100314.72
2023-04-16T07:25:36.905Z,100313.66
2023-04-16T07:28:39.595Z,100318.94
2023-04-16T07:31:42.672Z,100323.34
2023-04-16T07:34:45.371Z,100328.66
2023-04-16T07:37:48.170Z,100320.53
2023-04-16T07:40:50.799Z,100322.19
2023-04-16T07:43:53.597Z,100318.72
2023-04-16T07:46:56.150Z,100329.34
2023-04-16T07:49:59.078Z,100315.69
2023-04-16T07:53:01.533Z,100327.12
2023-04-16T07:56:04.292Z,100318.06
2023-04-16T07:59:21.025Z,100331.09
2023-04-16T08:02:26.518Z,100335.59
2023-04-16T08:05:29.838Z,100330.88
2023-04-16T08:08:32.423Z,100338.66
2023-04-16T08:11:37.731Z,100334.28
2023-04-16T08:14:41.312Z,100337.91
2023-04-16T08:17:44.575Z,100333.62
2023-04-16T08:20:47.160Z,100331.66
2023-04-16T08:23:50.535Z,100327.19
2023-04-16T08:26:53.006Z,100337.31
2023-04-16T08:29:55.805Z,100337.59
2023-04-16T08:32:58.499Z,100331.94
2023-04-16T08:36:01.318Z,100331.87
2023-04-16T08:39:04.150Z,100336.50
2023-04-16T08:42:14.357Z,100334.41
2023-04-16T08:45:19.847Z,100328.13
2023-04-16T08:48:23.143Z,100337.12
2023-04-16T08:51:27.413Z,100333.38
2023-04-16T08:54:46.559Z,100344.34
2023-04-16T08:58:00.772Z,100339.59
2023-04-16T09:01:04.010Z,100347.88
2023-04-16T09:04:07.934Z,100346.28
2023-04-16T09:07:11.249Z,100358.16
2023-04-16T09:10:15.344Z,100353.75
2023-04-16T09:13:20.516Z,100354.06
2023-04-16T09:16:23.576Z,100357.12
2023-04-16T09:19:27.204Z,100359.56
2023-04-16T09:22:29.758Z,100356.88
2023-04-16T09:25:34.642Z,100355.66
2023-04-16T09:28:46.556Z,100358.22
2023-04-16T09:32:05.472Z,100353.22
2023-04-16T09:35:08.474Z,100370.16
2023-04-16T09:38:11.243Z,100380.53
2023-04-16T09:41:16.371Z,100371.56
2023-04-16T09:44:19.128Z,100367.91
2023-04-16T09:47:22.566Z,100374.47
2023-04-16T09:50:26.480Z,100371.88
2023-04-16T09:53:31.014Z,100368.25
2023-04-16T09:56:33.970Z,100374.19
2023-04-16T09:59:36.557Z,100376.31
2023-04-16T10:02:42.869Z,100372.66
2023-04-16T10:05:46.085Z,100371.38
2023-04-16T10:08:52.720Z,100370.31
2023-04-16T10:11:55.497Z,100372.06
2023-04-16T10:14:57.959Z,100371.38
2023-04-16T10:18:00.820Z,100374.84
2023-04-16T10:21:03.640Z,100376.37
2023-04-16T10:24:06.898Z,100376.66
2023-04-16T10:27:09.419Z,100372.19
2023-04-16T10:30:13.471Z,100374.12
2023-04-16T10:33:16.078Z,100372.22
2023-04-16T10:36:29.065Z,100378.47
2023-04-16T10:39:33.008Z,100372.59
2023-04-16T10:42:35.878Z,100377.97
2023-04-16T10:45:38.515Z,100380.22
2023-04-16T10:48:49.588Z,100377.19
2023-04-16T10:52:02.264Z,100375.25
2023-04-16T10:55:05.513Z,100373.66
2023-04-16T10:58:27.879Z,100364.31
2023-04-16T11:01:35.854Z,100366.53
2023-04-16T11:04:39.754Z,100368.97
2023-04-16T11:07:49.408Z,100370.28
2023-04-16T11:10:52.626Z,100377.28
2023-04-16T11:13:56.932Z,100369.00
2023-04-16T11:17:03.684Z,100371.16
2023-04-16T11:20:19.315Z,100368.00
2023-04-16T11:23:22.821Z,100376.44
2023-04-16T11:26:30.857Z,100382.63
2023-04-16T11:29:33.790Z,100376.28
2023-04-16T11:32:38.215Z,100386.25
2023-04-16T11:35:41.455Z,100379.47
2023-04-16T11:38:44.448Z,100376.84
2023-04-16T11:41:48.821Z,100380.63
2023-04-16T11:44:56.168Z,100376.22
2023-04-16T11:47:58.813Z,100381.00
2023-04-16T11:51:01.792Z,100388.28
2023-04-16T11:54:04.393Z,100374.16
2023-04-16T11:57:07.183Z,100373.38
2023-04-16T12:00:15.923Z,100378.75
2023-04-16T12:03:19.077Z,100373.47
2023-04-16T12:06:23.275Z,100377.81
2023-04-16T12:09:27.347Z,100366.16
2023-04-16T12:12:32.163Z,100367.16
2023-04-16T12:15:52.011Z,100360.13
2023-04-16T12:19:04.484Z,100368.19
2023-04-16T12:22:07.329Z,100360.06
2023-04-16T12:25:16.949Z,100364.53
2023-04-16T12:28:31.301Z,100362.47
2023-04-16T12:31:37.468Z,100353.22
2023-04-16T12:34:51.204Z,100351.31
2023-04-16T12:37:53.721Z,100345.81
2023-04-16T12:40:57.738Z,100357.25
2023-04-16T12:44:14.449Z,100352.28
2023-04-16T12:47:17.380Z,100344.50
2023-04-16T12:50:19.944Z,100346.00
2023-04-16T12:53:22.814Z,100349.53
2023-04-16T12:56:25.323Z,100344.72
2023-04-16T12:59:28.421Z,100345.53
2023-04-16T13:02:32.262Z,100351.84
2023-04-16T13:05:35.125Z,100339.88
2023-04-16T13:08:37.693Z,100342.56
2023-04-16T13:11:40.629Z,100344.06
2023-04-16T13:14:45.028Z,100343.66
2023-04-16T13:17:48.095Z,100339.75
2023-04-16T13:20:50.789Z,100342.47
2023-04-16T13:23:54.141Z,100333.88
2023-04-16T13:26:56.846Z,100338.34
2023-04-16T13:29:59.826Z,100336.31
2023-04-16T13:33:02.496Z,100331.13
2023-04-16T13:36:05.734Z,100335.78
2023-04-16T13:39:11.805Z,100338.72
2023-04-16T13:42:14.724Z,100329.78
2023-04-16T13:45:17.284Z,100329.38
2023-04-16T13:48:20.095Z,100321.13
2023-04-16T13:51:22.929Z,100325.59
2023-04-16T13:54:25.731Z,100330.50
2023-04-16T13:57:29.006Z,100324.16
2023-04-16T14:00:32.244Z,100316.78
2023-04-16T14:03:37.643Z,100315.88
2023-04-16T14:06:40.278Z,100323.47
2023-04-16T14:09:43.175Z,100319.63
2023-04-16T14:12:46.102Z,100318.56
2023-04-16T14:15:49.449Z,100314.91
2023-04-16T14:18:52.274Z,100307.78
2023-04-16T14:21:55.040Z,100320.41
2023-04-16T14:24:57.567Z,100285.66
2023-04-16T14:28:01.183Z,100313.72
2023-04-16T14:31:03.779Z,100309.34
2023-04-16T14:34:06.894Z,100314.81
2023-04-16T14:37:09.394Z,100314.06
2023-04-16T14:40:12.857Z,100314.06
2023-04-16T14:43:15.498Z,100311.66
2023-04-16T14:46:18.501Z,100309.81
2023-04-16T14:49:21.303Z,100302.75
2023-04-16T14:52:25.320Z,100307.34
2023-04-16T14:55:27.935Z,100309.13
2023-04-16T14:58:31.455Z,100309.22
2023-04-16T15:01:35.902Z,100313.72
2023-04-16T15:04:38.806Z,100308.31
2023-04-16T15:07:41.499Z,100311.00
2023-04-16T15:10:45.779Z,100299.22
2023-04-16T15:13:48.643Z,100302.00
2023-04-16T15:16:51.773Z,100303.84
2023-04-16T15:19:54.337Z,100308.44
2023-04-16T15:22:57.028Z,100303.91
2023-04-16T15:25:59.837Z,100309.62
2023-04-16T15:29:02.870Z,100305.16
2023-04-16T15:32:06.951Z,100311.63
2023-04-16T15:35:11.350Z,100309.00
2023-04-16T15:38:14.276Z,100308.09
2023-04-16T15:41:17.325Z,100310.81
2023-04-16T15:44:20.590Z,100306.41
2023-04-16T15:47:23.680Z,100307.31
2023-04-16T15:50:26.560Z,100308.28
2023-04-16T15:53:29.709Z,100309.97
2023-04-16T15:56:32.937Z,100320.78
2023-04-16T15:59:35.948Z,100316.47
2023-04-16T16:02:39.902Z,100309.25
2023-04-16T16:05:43.128Z,100310.28
2023-04-16T16:08:46.143Z,100318.34
2023-04-16T16:11:59.753Z,100321.09
2023-04-16T16:15:02.717Z,100318.47
2023-04-16T16:18:06.005Z,100314.91
2023-04-16T16:21:08.610Z,100324.94
2023-04-16T16:24:11.322Z,100321.41
2023-04-16T16:27:14.033Z,100324.13
2023-04-16T16:30:16.904Z,100330.62
2023-04-16T16:33:21.269Z,100328.00
2023-04-16T16:36:24.413Z,100321.63
2023-04-16T16:39:27.606Z,100317.25
2023-04-16T16:42:31.733Z,100308.28
2023-04-16T16:45:34.557Z,100309.19
2023-04-16T16:48:37.504Z,100319.13
2023-04-16T16:51:40.464Z,100325.53
2023-04-16T16:54:43.862Z,100310.31
2023-04-16T16:57:46.685Z,100318.37
2023-04-16T17:00:49.746Z,100320.19
2023-04-16T17:03:52.902Z,100314.87
2023-04-16T17:06:56.069Z,100315.00
2023-04-16T17:10:01.981Z,100308.75
2023-04-16T17:13:06.127Z,100321.50
2023-04-16T17:16:09.096Z,100322.47
2023-04-16T17:19:12.859Z,100323.41
2023-04-16T17:22:15.829Z,100321.66
2023-04-16T17:25:19.130Z,100323.53
2023-04-16T17:28:22.048Z,100325.37
2023-04-16T17:31:27.607Z,100327.22
2023-04-16T17:34:30.480Z,100329.09
2023-04-16T17:37:33.542Z,100330.94
2023-04-16T17:40:36.311Z,100337.34
2023-04-16T17:43:39.716Z,100331.00
2023-04-16T17:46:42.558Z,100335.56
2023-04-16T17:49:45.700Z,100335.59
2023-04-16T17:52:49.116Z,100343.69
2023-04-16T17:55:56.955Z,100342.88
2023-04-16T17:58:59.923Z,100338.41
2023-04-16T18:02:03.272Z,100345.56
2023-04-16T18:05:07.898Z,100343.88
2023-04-16T18:08:10.522Z,100342.13
2023-04-16T18:11:13.539Z,100349.34
2023-04-16T18:14:21.282Z,100347.62
2023-04-16T18:17:24.241Z,100346.72
2023-04-16T18:20:27.461Z,100353.13
2023-04-16T18:23:30.469Z,100355.84
2023-04-16T18:26:35.674Z,100361.25
2023-04-16T18:29:40.538Z,100355.97
2023-04-16T18:32:56.145Z,100359.56
2023-04-16T18:36:06.675Z,100360.50
2023-04-16T18:39:09.732Z,100356.91
2023-04-16T18:42:12.892Z,100360.53
2023-04-16T18:45:21.183Z,100366.81
2023-04-16T18:48:25.508Z,100367.69
2023-04-16T18:51:28.363Z,100354.19
2023-04-16T18:54:33.560Z,100364.06
2023-04-16T18:57:36.929Z,100360.47
2023-04-16T19:00:40.197Z,100364.94
2023-04-16T19:03:43.588Z,100373.88
2023-04-16T19:06:48.550Z,100368.56
2023-04-16T19:09:51.660Z,100377.41
2023-04-16T19:12:56.463Z,100381.94
2023-04-16T19:16:00.019Z,100384.59
2023-04-16T19:19:03.445Z,100385.50
2023-04-16T19:22:06.630Z,100395.28
2023-04-16T19:25:10.198Z,100387.25
2023-04-16T19:28:14.106Z,100387.28
2023-04-16T19:31:17.751Z,100387.31
2023-04-16T19:34:21.081Z,100383.81
2023-04-16T19:37:24.184Z,100383.00
2023-04-16T19:40:27.059Z,100381.28
2023-04-16T19:43:31.127Z,100369.69
2023-04-16T19:46:33.980Z,100381.34
2023-04-16T19:49:37.723Z,100378.75
2023-04-16T19:52:40.429Z,100385.03
2023-04-16T19:55:43.990Z,100389.53
2023-04-16T19:58:47.210Z,100396.75
2023-04-16T20:01:50.675Z,100390.47
2023-04-16T20:04:53.598Z,100389.59
2023-04-16T20:07:56.477Z,100390.56
2023-04-16T20:10:59.522Z,100398.59
2023-04-16T20:14:02.211Z,100391.41
2023-04-16T20:17:09.740Z,100385.13
2023-04-16T20:20:15.620Z,100389.63
2023-04-16T20:23:18.731Z,100387.00
2023-04-16T20:26:24.718Z,100392.34
2023-04-16T20:29:27.707Z,100390.59
2023-04-16T20:32:30.234Z,100393.25
2023-04-16T20:35:33.537Z,100387.91
2023-04-16T20:38:37.422Z,100396.00
2023-04-16T20:41:43.796Z,100395.06
2023-04-16T20:44:50.410Z,100387.03
2023-04-16T20:47:53.569Z,100395.12
2023-04-16T20:51:00.158Z,100396.06
2023-04-16T20:54:02.989Z,100387.06
2023-04-16T20:57:05.618Z,100388.84
2023-04-16T21:00:12.375Z,100385.28
2023-04-16T21:03:15.090Z,100395.97
2023-04-16T21:06:22.429Z,100396.00
2023-04-16T21:09:24.879Z,100399.63
2023-04-16T21:12:27.831Z,100394.28
2023-04-16T21:15:30.973Z,100397.91
2023-04-16T21:18:34.932Z,100397.97
2023-04-16T21:21:38.352Z,100389.94
2023-04-16T21:24:41.123Z,100389.06
2023-04-16T21:27:43.707Z,100393.50
2023-04-16T21:30:46.572Z,100390.88
2023-04-16T21:33:49.107Z,100387.28
2023-04-16T21:36:51.878Z,100382.84
2023-04-16T21:39:54.322Z,100386.44
2023-04-16T21:42:57.020Z,100381.09
2023-04-16T21:45:59.664Z,100390.06
2023-04-16T21:49:02.416Z,100378.44
2023-04-16T21:52:05.348Z,100373.09
2023-04-16T21:55:09.427Z,100383.84
2023-04-16T21:58:11.884Z,100388.34
2023-04-16T22:01:14.741Z,100378.50
2023-04-16T22:04:17.855Z,100378.50
2023-04-16T22:07:20.814Z,100374.94
2023-04-16T22:10:23.683Z,100374.03
2023-04-16T22:13:26.426Z,100373.19
2023-04-16T22:16:29.189Z,100368.72
2023-04-16T22:19:31.796Z,100375.00
2023-04-16T22:22:35.449Z,100373.19
2023-04-16T22:25:37.917Z,100374.12
2023-04-16T22:28:40.739Z,100373.25
2023-04-16T22:31:43.277Z,100367.00
2023-04-16T22:34:46.385Z,100363.44
2023-04-16T22:37:48.832Z,100351.81
2023-04-16T22:40:51.660Z,100358.97
2023-04-16T22:43:54.577Z,100357.19
2023-04-16T22:46:57.353Z,100345.56
2023-04-16T22:50:00.577Z,100353.62
2023-04-16T22:53:03.430Z,100357.19
2023-04-16T22:56:06.437Z,100354.53
2023-04-16T22:59:09.529Z,100353.62
2023-04-16T23:02:12.346Z,100334.84
2023-04-16T23:05:15.124Z,100336.66
2023-04-16T23:08:17.607Z,100334.88
2023-04-16T23:11:20.357Z,100336.66
2023-04-16T23:14:23.789Z,100329.50
2023-04-16T23:17:26.696Z,100334.88
2023-04-16T23:20:29.234Z,100326.84
2023-04-16T23:23:32.273Z,100332.19
2023-04-16T23:26:34.786Z,100330.41
2023-04-16T23:29:37.634Z,100323.25
2023-04-16T23:32:40.495Z,100318.78
2023-04-16T23:35:43.296Z,100319.69
2023-04-16T23:38:46.128Z,100307.19
2023-04-16T23:41:49.568Z,100311.66
2023-04-16T23:44:52.230Z,100308.09
2023-04-16T23:47:55.131Z,100306.28
2023-04-16T23:50:57.758Z,100312.53
2023-04-16T23:54:00.734Z,100314.34
2023-04-16T23:57:03.353Z,100307.22
